Time;durP1;ratioP1;P1;durP2;ratioP2;P2;SDS_P1;SDS_P2;PMS_P1;PMS_P2;Temp;Humidity;BMP_temperature;BMP_pressure;BME280_temperature;BME280_humidity;BME280_pressure;Samples;Min_cycle;Max_cycle;Signal;HPM_P1;HPM_P2
2022/10/09 00:01:31;;;;;;;7.72;4.18;;;;;;;11.41;100.00;100370.41;6345896;28;20498;-75
2022/10/09 00:04:32;;;;;;;8.02;4.75;;;;;;;11.39;100.00;100371.44;6346989;28;20070;-74
2022/10/09 00:07:32;;;;;;;6.68;4.18;;;;;;;11.34;100.00;100370.84;6346935;28;20472;-74
2022/10/09 00:10:33;;;;;;;5.63;4.20;;;;;;;11.32;100.00;100368.31;6346003;28;20075;-75
2022/10/09 00:13:35;;;;;;;6.88;4.28;;;;;;;11.31;100.00;100376.25;6347022;27;20081;-74
2022/10/09 00:16:38;;;;;;;7.00;3.70;;;;;;;11.23;100.00;100366.25;6347149;28;20127;-75
2022/10/09 00:19:42;;;;;;;5.68;4.10;;;;;;;11.26;100.00;100373.91;6366057;28;20043;-75
2022/10/09 00:22:43;;;;;;;5.60;4.00;;;;;;;11.26;100.00;100363.44;6373247;27;20445;-75
2022/10/09 00:25:58;;;;;;;6.22;4.07;;;;;;;11.28;100.00;100364.19;6372086;28;20055;-75
2022/10/09 00:29:01;;;;;;;5.40;3.65;;;;;;;11.25;100.00;100360.00;6347881;28;20126;-75
2022/10/09 00:32:02;;;;;;;5.38;3.97;;;;;;;11.26;100.00;100371.28;6346397;28;20040;-75
2022/10/09 00:35:03;;;;;;;6.35;4.20;;;;;;;11.31;100.00;100369.25;6329482;28;20050;-75
2022/10/09 00:38:04;;;;;;;5.68;3.78;;;;;;;11.31;100.00;100369.25;6347351;28;20064;-75
2022/10/09 00:41:06;;;;;;;5.53;3.55;;;;;;;11.26;100.00;100369.53;6347057;28;20078;-74
2022/10/09 00:44:44;;;;;;;5.63;3.53;;;;;;;11.21;100.00;100366.34;6351803;28;20046;-74
2022/10/09 00:47:54;;;;;;;8.15;3.75;;;;;;;11.20;100.00;100364.66;6372724;28;20096;-74
2022/10/09 00:50:57;;;;;;;5.32;3.47;;;;;;;11.17;100.00;100371.84;6371440;28;20092;-74
2022/10/09 00:53:58;;;;;;;4.55;3.47;;;;;;;11.09;100.00;100365.28;6371397;28;20051;-74
2022/10/09 00:56:59;;;;;;;5.38;3.60;;;;;;;11.10;100.00;100360.91;6366091;27;20047;-75
2022/10/09 01:00:03;;;;;;;4.75;3.30;;;;;;;11.15;100.00;100355.41;6356434;28;20044;-74
2022/10/09 01:03:04;;;;;;;4.57;3.17;;;;;;;11.09;100.00;100367.88;6356761;27;20457;-74
2022/10/09 01:06:16;;;;;;;4.72;3.60;;;;;;;11.01;100.00;100370.09;6370496;27;20069;-74
2022/10/09 01:09:21;;;;;;;5.93;4.20;;;;;;;10.99;100.00;100369.34;6350943;28;20097;-74
2022/10/09 01:12:46;;;;;;;4.95;3.72;;;;;;;10.87;100.00;100368.31;6351726;27;20043;-74
2022/10/09 01:15:57;;;;;;;4.13;3.25;;;;;;;10.76;100.00;100359.41;6349581;28;20046;-74
2022/10/09 01:19:16;;;;;;;5.72;3.70;;;;;;;10.76;100.00;100380.28;6350583;28;20043;-75
2022/10/09 01:22:34;;;;;;;5.03;3.45;;;;;;;10.74;100.00;100375.13;6350548;28;20044;-74
2022/10/09 01:26:04;;;;;;;5.68;3.70;;;;;;;10.75;100.00;100370.75;6349439;28;20040;-74
2022/10/09 01:29:08;;;;;;;4.82;3.65;;;;;;;10.76;100.00;100375.91;6349606;27;20046;-74
2022/10/09 01:32:12;;;;;;;5.72;3.35;;;;;;;10.75;100.00;100376.84;6375698;27;20047;-74
2022/10/09 01:35:14;;;;;;;6.22;3.50;;;;;;;10.72;100.00;100381.38;6374668;27;20063;-74
2022/10/09 01:38:15;;;;;;;;;;;;;;;10.74;100.00;100382.13;6376293;27;20066;-74
2022/10/09 01:41:16;;;;;;;3.72;2.97;;;;;;;10.74;100.00;100382.97;6374721;27;19933;-74
2022/10/09 01:44:28;;;;;;;5.35;3.72;;;;;;;10.78;100.00;100383.63;6375637;27;20043;-75
2022/10/09 01:47:29;;;;;;;5.22;3.60;;;;;;;10.80;100.00;100380.00;6374405;27;20088;-74
2022/10/09 01:50:34;;;;;;;4.18;3.45;;;;;;;10.80;100.00;100377.41;6357134;27;20051;-74
2022/10/09 01:53:35;;;;;;;3.95;3.05;;;;;;;10.83;100.00;100385.06;6374126;27;20402;-74
2022/10/09 01:56:38;;;;;;;6.10;3.30;;;;;;;10.82;100.00;100380.75;6374443;27;20035;-74
2022/10/09 01:59:43;;;;;;;4.93;3.45;;;;;;;10.83;100.00;100371.16;6374111;27;20447;-74
2022/10/09 02:02:45;;;;;;;3.50;2.95;;;;;;;10.85;100.00;100384.97;6373845;27;20451;-74
2022/10/09 02:05:48;;;;;;;;;;;;;;;10.85;100.00;100378.00;6375595;27;20484;-74
2022/10/09 02:08:52;;;;;;;4.78;3.17;;;;;;;10.83;100.00;100379.84;6375250;27;20391;-75
2022/10/09 02:11:58;;;;;;;5.88;3.35;;;;;;;10.81;100.00;100375.63;6373529;27;20479;-74
2022/10/09 02:14:59;;;;;;;4.40;3.55;;;;;;;10.86;100.00;100384.03;6375013;27;20054;-74
2022/10/09 02:18:08;;;;;;;5.53;3.78;;;;;;;10.90;100.00;100385.56;6375211;27;20114;-74
2022/10/09 02:21:14;;;;;;;6.35;3.97;;;;;;;10.92;100.00;100393.31;6373353;27;20062;-74
2022/10/09 02:24:18;;;;;;;6.60;4.22;;;;;;;10.89;100.00;100389.94;6374549;27;20122;-74
2022/10/09 02:27:20;;;;;;;6.78;3.78;;;;;;;10.92;100.00;100401.13;6373425;27;20464;-74
2022/10/09 02:30:23;;;;;;;5.82;4.32;;;;;;;10.91;100.00;100402.88;6374656;27;20096;-75
2022/10/09 02:33:32;;;;;;;6.32;4.15;;;;;;;10.91;100.00;100396.84;6373160;27;20093;-74
2022/10/09 02:36:34;;;;;;;6.03;4.22;;;;;;;10.81;100.00;100394.75;6374649;27;20043;-75
2022/10/09 02:39:35;;;;;;;5.75;3.83;;;;;;;10.86;100.00;100390.09;6373200;27;20500;-75
2022/10/09 02:42:35;;;;;;;6.82;3.80;;;;;;;10.86;100.00;100395.31;6374288;27;20050;-76
2022/10/09 02:45:36;;;;;;;6.82;4.55;;;;;;;10.86;100.00;100389.28;6374232;27;20122;-75
2022/10/09 02:48:37;;;;;;;7.53;4.65;;;;;;;10.87;100.00;100391.81;6354532;27;20047;-75
2022/10/09 02:51:37;;;;;;;7.53;4.28;;;;;;;10.86;100.00;100390.09;6347396;28;20039;-75
2022/10/09 02:54:38;;;;;;;5.90;3.90;;;;;;;10.83;100.00;100379.00;6347209;28;20040;-76
2022/10/09 02:57:39;;;;;;;8.02;4.13;;;;;;;10.81;100.00;100386.06;6348922;28;20062;-75
2022/10/09 03:00:40;;;;;;;5.78;4.07;;;;;;;10.72;100.00;100387.44;6352443;27;20039;-75
2022/10/09 03:03:40;;;;;;;6.47;4.05;;;;;;;10.75;100.00;100396.84;6331194;28;20046;-76
2022/10/09 03:06:41;;;;;;;6.57;4.78;;;;;;;10.73;100.00;100399.56;6349191;28;20126;-74
2022/10/09 03:09:44;;;;;;;10.52;4.45;;;;;;;10.73;100.00;100390.88;6372078;27;20044;-74
2022/10/09 03:12:45;;;;;;;5.60;4.07;;;;;;;10.68;100.00;100402.41;6374313;27;20066;-75
2022/10/09 03:15:46;;;;;;;5.72;4.28;;;;;;;10.66;100.00;100406.03;6373345;27;20047;-75
2022/10/09 03:18:48;;;;;;;5.97;4.32;;;;;;;10.69;100.00;100414.56;6353623;27;20093;-75
2022/10/09 03:21:49;;;;;;;;;;;;;;;10.71;100.00;100411.00;6349275;28;20066;-75
2022/10/09 03:24:50;;;;;;;5.80;3.80;;;;;;;10.68;100.00;100410.25;6348261;28;19920;-75
2022/10/09 03:27:53;;;;;;;5.55;4.00;;;;;;;10.62;100.00;100400.16;6348595;28;20126;-75
2022/10/09 03:30:55;;;;;;;9.27;4.43;;;;;;;10.60;100.00;100396.78;6348760;28;20047;-75
2022/10/09 03:33:55;;;;;;;7.40;4.38;;;;;;;10.59;100.00;100400.34;6348551;28;20055;-75
2022/10/09 03:36:56;;;;;;;6.15;3.90;;;;;;;10.53;100.00;100397.22;6365690;27;20069;-75
2022/10/09 03:39:57;;;;;;;6.50;4.60;;;;;;;10.53;100.00;100387.63;6406633;27;20063;-75
2022/10/09 03:42:58;;;;;;;7.22;4.47;;;;;;;10.47;100.00;100387.97;6372444;27;20104;-75
2022/10/09 03:46:04;;;;;;;7.93;4.90;;;;;;;10.44;100.00;100385.53;6374158;27;20460;-75
2022/10/09 03:49:04;;;;;;;6.32;4.18;;;;;;;10.38;100.00;100391.94;6373755;27;20070;-75
2022/10/09 03:52:05;;;;;;;5.88;4.32;;;;;;;10.36;100.00;100390.34;6372591;27;20455;-75
2022/10/09 03:55:06;;;;;;;5.07;3.92;;;;;;;10.35;100.00;100392.06;6373442;27;20494;-75
2022/10/09 03:58:08;;;;;;;6.72;4.57;;;;;;;10.40;100.00;100410.13;6373316;27;20039;-75
2022/10/09 04:01:13;;;;;;;6.55;4.20;;;;;;;10.36;100.00;100412.03;6372989;27;20601;-74
2022/10/09 04:04:14;;;;;;;6.63;4.72;;;;;;;10.36;100.00;100412.03;6372219;27;20057;-74
2022/10/09 04:07:17;;;;;;;5.47;3.72;;;;;;;10.31;100.00;100416.66;6363955;27;20047;-74
2022/10/09 04:10:22;;;;;;;7.78;4.03;;;;;;;10.28;100.00;100414.19;6347262;28;20479;-74
2022/10/09 04:13:25;;;;;;;7.78;4.43;;;;;;;10.26;100.00;100421.25;6346391;28;20073;-73
2022/10/09 04:16:26;;;;;;;7.95;3.95;;;;;;;10.30;100.00;100432.41;6347720;28;20589;-74
2022/10/09 04:19:29;;;;;;;7.30;4.60;;;;;;;10.28;100.00;100435.88;6346288;28;20048;-74
2022/10/09 04:22:30;;;;;;;7.32;4.78;;;;;;;10.26;100.00;100445.56;6347818;28;20047;-75
2022/10/09 04:25:30;;;;;;;6.00;4.60;;;;;;;10.28;100.00;100441.09;6380903;27;20461;-76
2022/10/09 04:28:31;;;;;;;7.72;4.22;;;;;;;10.29;100.00;100447.16;6363510;27;20113;-74
2022/10/09 04:31:32;;;;;;;9.25;5.20;;;;;;;10.30;100.00;100458.47;6346418;28;20040;-74
2022/10/09 04:34:35;;;;;;;6.90;4.65;;;;;;;10.35;100.00;100457.28;6347390;28;20537;-74
2022/10/09 04:37:36;;;;;;;7.97;4.85;;;;;;;10.36;100.00;100456.38;6367920;27;20501;-74
2022/10/09 04:40:39;;;;;;;8.27;4.97;;;;;;;10.37;100.00;100452.84;6351273;28;20117;-74
2022/10/09 04:43:40;;;;;;;6.55;4.95;;;;;;;10.40;100.00;100459.69;6352815;28;20051;-75
2022/10/09 04:46:41;;;;;;;12.77;5.35;;;;;;;10.44;100.00;100462.03;6351527;28;20399;-75
2022/10/09 04:49:41;;;;;;;6.88;4.97;;;;;;;10.45;100.00;100465.47;6352712;28;20032;-75
2022/10/09 04:52:42;;;;;;;11.27;5.65;;;;;;;10.45;100.00;100468.91;6352609;28;20040;-75
2022/10/09 04:55:44;;;;;;;9.93;5.40;;;;;;;10.55;100.00;100471.88;6351597;28;20118;-75
2022/10/09 04:58:45;;;;;;;8.03;5.07;;;;;;;10.59;100.00;100477.78;6350358;28;20560;-75
2022/10/09 05:01:46;;;;;;;10.55;5.90;;;;;;;10.59;100.00;100478.63;6352288;28;20861;-75
2022/10/09 05:04:47;;;;;;;11.25;5.90;;;;;;;10.67;100.00;100478.22;6350913;28;20051;-75
2022/10/09 05:07:47;;;;;;;43.30;25.17;;;;;;;10.68;100.00;100472.88;6350788;28;20040;-74
2022/10/09 05:10:50;;;;;;;76.35;43.28;;;;;;;10.74;100.00;100470.88;6373908;27;20049;-74
2022/10/09 05:13:56;;;;;;;67.05;36.92;;;;;;;10.81;100.00;100467.84;6376972;27;20043;-74
2022/10/09 05:17:01;;;;;;;59.22;33.63;;;;;;;10.85;100.00;100476.31;6375959;27;20046;-74
2022/10/09 05:20:02;;;;;;;53.72;28.60;;;;;;;10.91;100.00;100469.94;6358456;27;20436;-75
2022/10/09 05:23:03;;;;;;;42.50;23.88;;;;;;;10.93;100.00;100471.53;6376872;27;20051;-74
2022/10/09 05:26:06;;;;;;;34.63;20.25;;;;;;;10.99;100.00;100472.97;6358167;27;20059;-74
2022/10/09 05:29:07;;;;;;;29.65;17.73;;;;;;;11.05;100.00;100486.50;6376894;27;20084;-75
2022/10/09 05:32:08;;;;;;;21.45;14.82;;;;;;;11.12;100.00;100494.84;6375943;27;20122;-75
2022/10/09 05:35:08;;;;;;;24.95;16.25;;;;;;;11.20;100.00;100495.28;6358735;27;20085;-73
2022/10/09 05:38:09;;;;;;;28.45;17.38;;;;;;;11.33;100.00;100502.41;6376615;27;20089;-73
2022/10/09 05:41:15;;;;;;;18.23;12.38;;;;;;;11.44;100.00;100505.25;6376649;27;20127;-74
2022/10/09 05:44:16;;;;;;;16.67;10.50;;;;;;;11.57;100.00;100510.59;6375266;27;20047;-73
2022/10/09 05:47:18;;;;;;;13.35;8.70;;;;;;;11.68;100.00;100519.50;6374547;27;20062;-73
2022/10/09 05:50:19;;;;;;;9.52;6.45;;;;;;;11.83;100.00;100517.75;6375158;27;20126;-74
2022/10/09 05:53:20;;;;;;;10.43;6.63;;;;;;;12.03;100.00;100519.22;6374999;27;20043;-73
2022/10/09 05:56:22;;;;;;;12.48;7.25;;;;;;;12.23;100.00;100536.34;6355410;27;20398;-74
2022/10/09 05:59:23;;;;;;;12.90;8.60;;;;;;;12.43;100.00;100535.13;6364921;27;20459;-75
2022/10/09 06:02:24;;;;;;;13.00;8.32;;;;;;;12.53;100.00;100542.44;6356826;27;20043;-76
2022/10/09 06:05:25;;;;;;;13.15;7.75;;;;;;;12.77;100.00;100545.31;6375312;27;20035;-75
2022/10/09 06:08:25;;;;;;;14.73;7.15;;;;;;;12.88;100.00;100554.16;6375483;27;20090;-75
2022/10/09 06:11:30;;;;;;;12.05;7.45;;;;;;;12.89;100.00;100560.25;6375151;27;20084;-76
2022/10/09 06:14:31;;;;;;;12.43;6.32;;;;;;;13.05;100.00;100563.59;6375073;27;20112;-74
2022/10/09 06:17:32;;;;;;;10.23;5.93;;;;;;;13.15;100.00;100565.63;6375336;27;20043;-75
2022/10/09 06:20:33;;;;;;;8.77;6.07;;;;;;;13.30;100.00;100572.53;6373659;27;20134;-75
2022/10/09 06:23:36;;;;;;;10.55;5.80;;;;;;;13.26;100.00;100584.97;6374874;27;20043;-75
2022/10/09 06:26:37;;;;;;;9.63;6.30;;;;;;;13.18;100.00;100583.75;6374759;27;20543;-74
2022/10/09 06:29:38;;;;;;;8.20;5.28;;;;;;;13.20;100.00;100587.97;6374758;27;20049;-75
2022/10/09 06:32:38;;;;;;;9.43;5.50;;;;;;;13.19;100.00;100583.66;6374541;27;20043;-76
2022/10/09 06:35:39;;;;;;;11.30;6.90;;;;;;;13.34;100.00;100584.50;6374525;27;20039;-74
2022/10/09 06:38:43;;;;;;;12.23;6.18;;;;;;;13.36;100.00;100582.63;6373298;27;20042;-74
2022/10/09 06:41:44;;;;;;;13.30;6.35;;;;;;;13.38;100.00;100587.75;6373184;27;20148;-74
2022/10/09 06:44:47;;;;;;;13.20;6.65;;;;;;;13.53;100.00;100589.41;6351728;27;20044;-74
2022/10/09 06:47:47;;;;;;;13.77;6.82;;;;;;;13.68;100.00;100598.06;6355454;27;20043;-74
2022/10/09 06:50:48;;;;;;;10.82;6.30;;;;;;;13.74;100.00;100596.81;6373710;27;20071;-74
2022/10/09 06:53:51;;;;;;;8.48;6.13;;;;;;;14.02;100.00;100603.69;6348056;27;20039;-75
2022/10/09 06:56:53;;;;;;;11.90;6.72;;;;;;;13.94;100.00;100606.84;6358815;27;20047;-75
2022/10/09 06:59:54;;;;;;;12.48;8.48;;;;;;;14.08;100.00;100606.75;6369904;27;20115;-74
2022/10/09 07:02:55;;;;;;;11.95;6.85;;;;;;;14.17;100.00;100604.47;6362195;27;20035;-74
2022/10/09 07:06:18;;;;;;;10.98;6.78;;;;;;;14.05;100.00;100603.50;6363205;27;20039;-75
2022/10/09 07:09:19;;;;;;;13.43;7.25;;;;;;;14.04;100.00;100600.03;6365637;27;20046;-74
2022/10/09 07:12:20;;;;;;;8.95;6.18;;;;;;;14.15;100.00;100596.69;6353489;27;20047;-74
2022/10/09 07:15:23;;;;;;;10.77;6.05;;;;;;;14.31;100.00;100612.25;6349436;27;20101;-75
2022/10/09 07:18:23;;;;;;;12.20;7.45;;;;;;;14.57;100.00;100607.03;6395541;27;20050;-74
2022/10/09 07:21:27;;;;;;;11.20;5.22;;;;;;;14.44;100.00;100610.47;6358760;27;20047;-74
2022/10/09 07:24:27;;;;;;;8.25;5.47;;;;;;;14.40;100.00;100616.88;6364391;27;20043;-74
2022/10/09 07:27:28;;;;;;;11.00;7.13;;;;;;;14.58;100.00;100620.06;6364861;27;20089;-74
2022/10/09 07:30:29;;;;;;;10.68;5.28;;;;;;;14.67;100.00;100631.72;6328717;28;20244;-74
2022/10/09 07:33:30;;;;;;;17.20;5.32;;;;;;;14.68;100.00;100631.59;6346178;28;20063;-74
2022/10/09 07:36:31;;;;;;;8.40;5.40;;;;;;;14.67;100.00;100629.91;6347358;28;20316;-74
2022/10/09 07:39:33;;;;;;;8.18;5.10;;;;;;;14.84;100.00;100622.66;6346011;28;20495;-74
2022/10/09 07:42:34;;;;;;;9.65;5.55;;;;;;;14.87;100.00;100612.78;6347314;28;20078;-74
2022/10/09 07:45:35;;;;;;;8.02;5.10;;;;;;;14.92;100.00;100620.31;6345933;28;20040;-74
2022/10/09 07:48:35;;;;;;;8.02;4.78;;;;;;;15.14;100.00;100627.53;6345937;28;20485;-74
2022/10/09 07:51:36;;;;;;;5.95;4.03;;;;;;;15.05;100.00;100617.66;6345871;28;20039;-74
2022/10/09 07:54:39;;;;;;;4.63;3.60;;;;;;;15.13;100.00;100632.91;6345814;28;20122;-74
2022/10/09 07:57:42;;;;;;;10.88;4.80;;;;;;;15.45;100.00;100622.72;6346858;28;20050;-73
2022/10/09 08:00:49;;;;;;;9.48;4.50;;;;;;;15.44;100.00;100627.13;6345695;28;20055;-74
2022/10/09 08:03:50;;;;;;;10.07;5.57;;;;;;;15.63;100.00;100626.63;6345713;28;20043;-75
2022/10/09 08:06:53;;;;;;;8.50;4.45;;;;;;;15.78;100.00;100622.06;6345562;28;20044;-75
2022/10/09 08:09:53;;;;;;;8.27;4.57;;;;;;;15.95;98.00;100631.34;6345384;28;20483;-76
2022/10/09 08:12:54;;;;;;;7.15;3.47;;;;;;;15.83;97.44;100625.19;6362587;27;20065;-75
2022/10/09 08:15:58;;;;;;;6.93;4.25;;;;;;;16.01;96.83;100633.50;6345639;28;20051;-75
2022/10/09 08:19:03;;;;;;;6.68;3.92;;;;;;;16.02;95.11;100627.31;6345345;28;20062;-74
2022/10/09 08:22:04;;;;;;;8.88;3.72;;;;;;;16.22;95.39;100630.22;6345340;28;20047;-74
2022/10/09 08:25:07;;;;;;;8.48;4.00;;;;;;;16.40;95.98;100639.38;6345365;28;20519;-75
2022/10/09 08:28:08;;;;;;;7.75;4.18;;;;;;;16.61;92.45;100636.03;6346636;28;20046;-75
2022/10/09 08:31:13;;;;;;;7.72;3.80;;;;;;;16.77;89.51;100644.44;6346714;28;20036;-75
2022/10/09 08:34:14;;;;;;;7.53;4.15;;;;;;;16.78;89.79;100640.00;6346443;28;20404;-75
2022/10/09 08:37:15;;;;;;;9.75;4.32;;;;;;;17.24;90.78;100647.81;6346403;28;20056;-75
2022/10/09 08:40:20;;;;;;;8.52;4.43;;;;;;;17.44;86.56;100646.22;6345091;28;20134;-74
2022/10/09 08:43:29;;;;;;;7.47;4.32;;;;;;;17.62;86.49;100648.31;6362312;27;20047;-75
2022/10/09 08:46:39;;;;;;;8.68;3.47;;;;;;;17.70;85.66;100648.53;6328111;28;20059;-75
2022/10/09 08:49:53;;;;;;;7.93;3.63;;;;;;;17.73;82.88;100646.47;6346375;28;20043;-75
2022/10/09 08:53:06;;;;;;;6.13;3.78;;;;;;;17.65;82.29;100642.81;6346257;28;20092;-75
2022/10/09 08:56:12;;;;;;;6.47;3.40;;;;;;;17.65;82.92;100641.00;6345043;28;20423;-75
2022/10/09 08:59:15;;;;;;;6.78;3.47;;;;;;;18.15;82.65;100644.91;6346309;28;20044;-74
2022/10/09 09:02:34;;;;;;;6.40;3.45;;;;;;;18.11;78.70;100657.50;6346107;28;20122;-74
2022/10/09 09:05:53;;;;;;;4.97;3.35;;;;;;;18.27;78.42;100663.19;6345003;28;20108;-75
2022/10/09 09:09:08;;;;;;;5.13;3.50;;;;;;;18.48;75.19;100662.34;6344824;28;20072;-75
2022/10/09 09:12:33;;;;;;;5.43;3.67;;;;;;;18.57;75.55;100673.94;6327843;28;20103;-74
2022/10/09 09:15:48;;;;;;;5.45;3.33;;;;;;;18.58;77.13;100673.81;6345964;28;20395;-74
2022/10/09 09:18:55;;;;;;;10.13;2.90;;;;;;;18.79;75.39;100678.28;6344671;28;20039;-74
2022/10/09 09:21:58;;;;;;;4.45;2.38;;;;;;;18.60;72.49;100681.63;6327509;28;20111;-74
2022/10/09 09:25:00;;;;;;;6.25;3.05;;;;;;;18.75;72.97;100679.47;6349231;28;20058;-75
2022/10/09 09:28:17;;;;;;;5.30;2.45;;;;;;;19.01;74.44;100680.75;6350449;28;20398;-75
2022/10/09 09:31:29;;;;;;;3.67;2.20;;;;;;;19.05;67.86;100690.09;6349252;28;20132;-75
2022/10/09 09:34:37;;;;;;;3.63;2.47;;;;;;;19.13;65.23;100689.44;6348894;28;20064;-74
2022/10/09 09:37:38;;;;;;;3.13;2.20;;;;;;;19.06;65.91;100694.38;6350336;28;20498;-75
2022/10/09 09:40:40;;;;;;;2.88;1.90;;;;;;;19.08;64.24;100686.34;6349043;28;20228;-74
2022/10/09 09:43:41;;;;;;;2.77;2.13;;;;;;;18.82;65.58;100694.72;6350187;28;20071;-74
2022/10/09 09:46:46;;;;;;;1.98;1.73;;;;;;;18.29;66.41;100692.13;6365762;27;20048;-75
2022/10/09 09:49:58;;;;;;;5.30;2.42;;;;;;;18.54;68.98;100685.63;6348803;28;20044;-74
2022/10/09 09:53:01;;;;;;;;;;;;;;;18.41;66.53;100684.97;6349009;28;20484;-74
2022/10/09 09:56:03;;;;;;;2.72;2.13;;;;;;;18.91;61.93;100683.34;6348698;28;19945;-74
2022/10/09 09:59:03;;;;;;;5.85;1.90;;;;;;;19.30;62.09;100685.31;6331341;28;20105;-75
2022/10/09 10:02:17;;;;;;;4.20;2.10;;;;;;;18.94;61.85;100690.16;6349663;28;20044;-75
2022/10/09 10:05:26;;;;;;;3.15;2.10;;;;;;;18.46;66.52;100691.53;6348348;28;20047;-74
2022/10/09 10:08:32;;;;;;;2.33;1.50;;;;;;;18.65;65.79;100695.28;6348319;28;20051;-74
2022/10/09 10:11:34;;;;;;;3.70;1.75;;;;;;;19.12;64.52;100699.16;6348172;28;20087;-74
2022/10/09 10:14:35;;;;;;;3.00;1.95;;;;;;;19.11;64.43;100701.94;6349338;28;20047;-75
2022/10/09 10:17:36;;;;;;;4.88;1.83;;;;;;;19.56;61.18;100713.91;6347846;28;20044;-76
2022/10/09 10:21:10;;;;;;;3.58;2.03;;;;;;;19.17;63.41;100711.13;6347900;28;20117;-75
2022/10/09 10:24:17;;;;;;;2.45;1.33;;;;;;;18.83;65.00;100719.34;6336351;28;20052;-75
2022/10/09 10:27:39;;;;;;;5.40;2.22;;;;;;;18.66;67.86;100712.81;6349020;28;20047;-75
2022/10/09 10:30:42;;;;;;;2.22;1.58;;;;;;;18.17;67.05;100719.56;6347667;28;20060;-74
2022/10/09 10:33:48;;;;;;;6.28;2.60;;;;;;;18.02;69.08;100713.75;6347363;28;20078;-75
2022/10/09 10:36:56;;;;;;;4.55;2.10;;;;;;;18.01;70.12;100720.81;6348889;28;20498;-74
2022/10/09 10:40:12;;;;;;;5.97;2.00;;;;;;;18.25;69.59;100710.03;6347506;28;20496;-75
2022/10/09 10:43:46;;;;;;;2.33;1.52;;;;;;;17.78;69.05;100701.53;6347590;28;20100;-74
2022/10/09 10:46:53;;;;;;;3.63;2.10;;;;;;;18.32;67.44;100710.34;6314520;28;20495;-75
2022/10/09 10:49:54;;;;;;;2.05;1.60;;;;;;;18.23;67.84;100708.50;6381731;27;20055;-74
2022/10/09 10:53:13;;;;;;;2.90;1.75;;;;;;;18.76;64.27;100715.50;6350429;27;20392;-75
2022/10/09 10:56:28;;;;;;;8.70;1.60;;;;;;;18.88;63.31;100710.06;6353699;27;20096;-75
2022/10/09 10:59:44;;;;;;;4.30;1.85;;;;;;;18.48;64.66;100710.75;6364266;27;20163;-75
2022/10/09 11:02:54;;;;;;;4.32;2.00;;;;;;;18.99;62.50;100710.94;6373799;27;20042;-75
2022/10/09 11:06:06;;;;;;;4.32;2.00;;;;;;;19.34;61.73;100710.53;6351680;27;20043;-75
2022/10/09 11:09:26;;;;;;;2.10;1.45;;;;;;;19.31;59.69;100711.63;6381229;27;20502;-75
2022/10/09 11:12:44;;;;;;;2.17;1.25;;;;;;;19.13;62.23;100705.31;6346762;28;20074;-74
2022/10/09 11:15:52;;;;;;;2.38;1.20;;;;;;;18.90;59.79;100705.47;6346616;28;20087;-75
2022/10/09 11:19:13;;;;;;;3.05;1.55;;;;;;;18.94;57.76;100703.38;6353172;27;20043;-75
2022/10/09 11:22:29;;;;;;;1.75;1.15;;;;;;;18.75;59.53;100705.91;6371408;27;20167;-74
2022/10/09 11:25:49;;;;;;;2.85;1.33;;;;;;;18.55;62.14;100695.19;6354953;27;20054;-74
2022/10/09 11:29:15;;;;;;;2.42;1.40;;;;;;;18.41;60.08;100701.66;6373206;27;20050;-74
2022/10/09 11:32:23;;;;;;;2.38;1.48;;;;;;;18.21;60.31;100705.97;6372056;27;20050;-74
2022/10/09 11:35:29;;;;;;;1.88;1.15;;;;;;;18.21;61.62;100707.78;6373062;27;20128;-74
2022/10/09 11:38:42;;;;;;;3.58;1.48;;;;;;;18.11;63.15;100699.75;6354557;27;20200;-74
2022/10/09 11:41:46;;;;;;;5.55;1.95;;;;;;;18.13;59.71;100700.47;6371664;27;20621;-74
2022/10/09 11:45:27;;;;;;;1.75;1.23;;;;;;;18.53;59.72;100707.72;6372566;27;20074;-74
2022/10/09 11:48:32;;;;;;;;;;;;;;;18.65;59.60;100717.25;6354934;27;20084;-74
2022/10/09 11:51:45;;;;;;;2.85;1.58;;;;;;;18.41;58.18;100706.94;6371575;27;19919;-74
2022/10/09 11:54:46;;;;;;;2.35;1.50;;;;;;;18.26;61.44;100711.72;6372684;27;20031;-74
2022/10/09 11:57:47;;;;;;;2.30;1.40;;;;;;;17.99;63.25;100708.69;6351124;27;20108;-74
2022/10/09 12:00:52;;;;;;;6.60;1.53;;;;;;;17.80;61.44;100714.59;6345774;28;20075;-74
2022/10/09 12:04:04;;;;;;;4.68;1.33;;;;;;;18.01;61.38;100718.16;6346969;28;20283;-74
2022/10/09 12:07:08;;;;;;;;;;;;;;;18.53;57.69;100713.00;6363265;27;20055;-74
2022/10/09 12:10:32;;;;;;;3.63;1.27;;;;;;;18.76;54.75;100711.06;6346842;28;19924;-74
2022/10/09 12:13:36;;;;;;;2.17;1.30;;;;;;;18.91;54.49;100715.06;6347157;27;20051;-74
2022/10/09 12:16:42;;;;;;;5.25;1.00;;;;;;;19.08;56.75;100718.06;6383629;27;20059;-74
2022/10/09 12:19:44;;;;;;;2.03;1.10;;;;;;;19.27;53.52;100714.66;6372119;27;20043;-75
2022/10/09 12:22:48;;;;;;;1.73;1.30;;;;;;;19.25;56.42;100716.59;6372297;28;20085;-75
2022/10/09 12:25:50;;;;;;;3.13;1.42;;;;;;;19.35;54.82;100708.69;6353920;28;20091;-74
2022/10/09 12:28:59;;;;;;;4.57;1.17;;;;;;;19.36;53.26;100711.22;6370984;28;20035;-74
2022/10/09 12:32:11;;;;;;;2.65;1.38;;;;;;;19.12;52.25;100709.72;6366178;28;20586;-74
2022/10/09 12:35:24;;;;;;;3.90;1.23;;;;;;;19.04;52.81;100714.00;6345252;28;20052;-74
2022/10/09 12:38:28;;;;;;;1.40;0.90;;;;;;;18.84;53.04;100711.28;6328349;28;20067;-74
2022/10/09 12:41:33;;;;;;;3.22;1.13;;;;;;;19.22;54.63;100712.41;6345285;28;20044;-74
2022/10/09 12:44:38;;;;;;;2.92;1.42;;;;;;;19.04;53.22;100714.00;6345247;28;20050;-74
2022/10/09 12:47:39;;;;;;;1.75;1.13;;;;;;;18.93;54.36;100705.19;6382456;27;20494;-74
2022/10/09 12:50:40;;;;;;;2.05;0.77;;;;;;;18.80;51.35;100709.00;6372090;27;20039;-76
2022/10/09 12:53:50;;;;;;;0.70;0.68;;;;;;;18.83;52.72;100706.94;6387951;27;20043;-75
2022/10/09 12:56:53;;;;;;;3.08;1.02;;;;;;;19.03;50.84;100712.34;6370820;27;20122;-75
2022/10/09 12:59:57;;;;;;;1.45;1.08;;;;;;;19.11;50.34;100708.06;6376903;27;20043;-75
2022/10/09 13:02:58;;;;;;;2.17;1.00;;;;;;;19.07;48.92;100713.75;6375759;27;20588;-75
2022/10/09 13:06:00;;;;;;;1.65;0.93;;;;;;;19.03;49.30;100710.53;6410370;27;20039;-75
2022/10/09 13:09:04;;;;;;;1.83;0.73;;;;;;;19.09;51.88;100714.47;6375392;27;20059;-75
2022/10/09 13:12:16;;;;;;;3.83;1.02;;;;;;;18.78;49.62;100710.91;6376703;27;20139;-75
2022/10/09 13:15:23;;;;;;;2.08;0.85;;;;;;;18.36;50.39;100709.13;6352853;27;20377;-75
2022/10/09 13:18:24;;;;;;;1.27;0.70;;;;;;;18.42;51.51;100703.34;6349854;28;20062;-75
2022/10/09 13:21:25;;;;;;;2.60;0.93;;;;;;;18.63;54.27;100708.59;6332384;28;20052;-75
2022/10/09 13:24:27;;;;;;;3.55;0.68;;;;;;;18.64;49.59;100707.66;6349700;28;20077;-75
2022/10/09 13:27:31;;;;;;;1.13;0.70;;;;;;;18.33;47.33;100685.63;6350754;28;20039;-74
2022/10/09 13:30:33;;;;;;;2.45;0.55;;;;;;;18.27;46.58;100702.81;6350568;28;20044;-74
2022/10/09 13:33:34;;;;;;;0.82;0.50;;;;;;;18.35;47.97;100701.34;6350439;28;20090;-74
2022/10/09 13:36:35;;;;;;;0.47;0.47;;;;;;;18.32;47.83;100695.34;6366501;27;20062;-74
2022/10/09 13:39:35;;;;;;;1.35;0.63;;;;;;;18.39;46.77;100702.75;6350321;28;20044;-74
2022/10/09 13:42:36;;;;;;;3.38;1.10;;;;;;;18.40;47.51;100709.72;6350379;28;20048;-74
2022/10/09 13:45:37;;;;;;;0.43;0.43;;;;;;;18.40;46.02;100691.22;6349107;28;20047;-75
2022/10/09 13:48:38;;;;;;;1.15;0.63;;;;;;;18.20;48.69;100701.66;6348948;28;20063;-74
2022/10/09 13:51:41;;;;;;;1.30;0.70;;;;;;;18.07;48.03;100691.25;6348736;28;20100;-74
2022/10/09 13:54:44;;;;;;;0.85;0.60;;;;;;;17.79;47.97;100686.53;6348623;28;20047;-74
2022/10/09 13:57:45;;;;;;;2.33;0.90;;;;;;;17.82;49.05;100695.03;6350020;28;20039;-74
2022/10/09 14:00:46;;;;;;;1.08;0.65;;;;;;;17.79;49.07;100692.66;6348498;28;20523;-75
2022/10/09 14:03:47;;;;;;;3.70;0.75;;;;;;;17.71;50.98;100693.28;6353920;27;20388;-74
2022/10/09 14:06:48;;;;;;;1.02;0.60;;;;;;;17.77;50.70;100693.72;6337997;27;20043;-74
2022/10/09 14:09:51;;;;;;;2.83;0.80;;;;;;;17.75;49.10;100693.88;6371461;27;20046;-74
2022/10/09 14:12:52;;;;;;;1.45;0.82;;;;;;;17.84;51.80;100698.41;6372778;27;20079;-74